EURO 2000 QUALIFIERS
Matches Played:228
Goals Scored:652
Goal Average:2.86
Top Scorer:SPAIN (42)
GROUP 1
 05/09/98 Dynama Stadium BLR  0 : 0  DEN  34000
 05/09/98 Anfield WAL  0 : 2  ITA  23160
 10/10/98 Stadio Friuli ITA  2 : 0  SUI  35247
 10/10/98 Telia Parken DEN  1 : 2  WAL  36009
 14/10/98 Ninian Park WAL  3 : 2  BLR  7813
 14/10/98 Hardturm SUI  1 : 1  DEN  12500
 27/03/99 Telia Parken DEN  1 : 2  ITA  41429
 27/03/99 Dynama Stadium BLR  0 : 1  SUI  35000
 31/03/99 Stadio del Conero ITA  1 : 1  BLR  23000
 31/03/99 Letzigrund SUI  2 : 0  WAL  13500
 05/06/99 Renato Dall'Ara ITA  4 : 0  WAL  12392
 05/06/99 Telia Parken DEN  1 : 0  BLR  24876
 09/06/99 Anfield WAL  0 : 2  DEN  11000
 09/06/99 Olympique de la Pontaise SUI  0 : 0  ITA  13124
 04/09/99 Telia Parken DEN  2 : 1  SUI  41667
 04/09/99 Dynama Stadium BLR  1 : 2  WAL  25000
 08/09/99 San Paolo ITA  2 : 3  DEN  48919
 08/09/99 Olympique de la Pontaise SUI  2 : 0  BLR  12500
 09/10/99 Racecourse Ground WAL  0 : 2  SUI  5064
 09/10/99 Dynama Stadium BLR  0 : 0  ITA  32000
GROUP 2
 05/09/98 Boris Paichadze GEO  1 : 0  ALB  35000
 06/09/98 Ullevaal Stadion NOR  1 : 3  LAT  11031
 06/09/98 OAKA Spiros Louis GRE  2 : 2  SVN  28908
 10/10/98 OAKA Spiros Louis GRE  3 : 0  GEO  15000
 10/10/98 Bezigrad Stadium SVN  1 : 2  NOR  7000
 10/10/98 Daugava Stadiona LAT  1 : 0  GEO  1900
 14/10/98 Ljudski vrt Stadium SVN  1 : 0  LAT  3292
 14/10/98 Ullevaal Stadion NOR  2 : 2  ALB  17770
 18/11/98 Qemal Stafa ALB  0 : 0  GRE  18670
 27/03/99 OAKA Spiros Louis GRE  0 : 2  NOR  42572
 27/03/99 Boris Paichadze GEO  1 : 1  SVN  12000
 31/03/99 Boris Paichadze GEO  1 : 4  NOR  14000
 31/03/99 Daugava Stadiona LAT  0 : 0  GRE  5100
 28/04/99 Daugava Stadiona LAT  0 : 0  ALB  2600
 30/05/99 Ullevaal Stadion NOR  1 : 0  GEO  18236
 05/06/99 Boris Paichadze GEO  1 : 2  GRE  7000
 05/06/99 Qemal Stafa ALB  1 : 2  NOR  13000
 05/06/99 Daugava Stadiona LAT  1 : 2  SVN  2500
 09/06/99 OAKA Spiros Louis GRE  1 : 2  LAT  15000
 09/06/99 Qemal Stafa ALB  0 : 1  SVN  8000
 18/08/99 Bezigrad Stadium SVN  2 : 0  ALB  8000
 04/09/99 Bezigrad Stadium SVN  2 : 1  GEO  8500
 04/09/99 Qemal Stafa ALB  3 : 3  LAT  4000
 04/09/99 Ullevaal Stadion NOR  1 : 0  GRE  24133
 05/09/99 Boris Paichadze GEO  2 : 2  LAT  15000
 08/09/99 Ullevaal Stadion NOR  4 : 0  SVN  24288
 06/10/99 OAKA Spiros Louis GRE  2 : 0  ALB  11500
 09/10/99 Daugava Stadiona LAT  1 : 2  NOR  2500
 09/10/99 Ljudski vrt Stadium SVN  0 : 3  GRE  2500
 09/10/99 Qemal Stafa ALB  2 : 1  GEO  3000
GROUP 3
 05/09/98 Ali Sami Yen Stadium TUR  3 : 0  NIR  26500
 05/09/98 Olympic Stadium FIN  3 : 2  MLD  18717
 10/10/98 Bursa Ataturk TUR  1 : 0  GER  25000
 10/10/98 Windsor Park NIR  1 : 0  FIN  10000
 14/10/98 Ali Sami Yen Stadium TUR  1 : 3  FIN  20420
 14/10/98 Stadionul Republican MLD  1 : 3  GER  5400
 18/11/98 Windsor Park NIR  2 : 2  MLD  11142
 27/03/99 Ali Sami Yen Stadium TUR  2 : 0  MLD  19454
 27/03/99 Windsor Park NIR  0 : 3  GER  14270
 31/03/99 Max-Morlock-Stadion GER  2 : 0  FIN  40587
 31/03/99 Stadionul Republican MLD  0 : 0  NIR  8000
 04/06/99 BayArena GER  6 : 1  MLD  21000
 05/06/99 Olympic Stadium FIN  2 : 4  TUR  36042
 09/06/99 Stadionul Republican MLD  0 : 0  FIN  8000
 04/09/99 Olympic Stadium FIN  1 : 2  GER  20184
 04/09/99 Windsor Park NIR  0 : 3  TUR  7270
 08/09/99 Westfalenstadion GER  4 : 0  NIR  41000
 08/09/99 Stadionul Republican MLD  1 : 1  TUR  10000
 09/10/99 Olympiastadion GER  0 : 0  TUR  63572
 09/10/99 Olympic Stadium FIN  4 : 1  NIR  8200
GROUP 4
 05/09/98 Hrazdan Stadium ARM  3 : 1  AND  8000
 05/09/98 Laugardalsvollur ISL  1 : 1  FRA  10382
 05/09/98 NSC Olympiyskiy Stadium UKR  3 : 2  RUS  82000
 10/10/98 Luzhniki Stadium RUS  2 : 3  FRA  32500
 10/10/98 Hrazdan Stadium ARM  0 : 0  ISL  6000
 10/10/98 Estadi Comunal AND  0 : 2  UKR  850
 14/10/98 Stade de France FRA  2 : 0  AND  75416
 14/10/98 NSC Olympiyskiy Stadium UKR  2 : 0  ARM  14850
 14/10/98 Laugardalsvollur ISL  1 : 0  RUS  3375
 27/03/99 Stade de France FRA  0 : 0  UKR  78519
 27/03/99 Estadi Comunal AND  0 : 2  ISL  1000
 27/03/99 Hrazdan Stadium ARM  0 : 3  RUS  10000
 31/03/99 Stade de France FRA  2 : 0  ARM  78854
 31/03/99 NSC Olympiyskiy Stadium UKR  1 : 1  ISL  40000
 31/03/99 Lokomotiv Stadium RUS  6 : 1  AND  10333
 05/06/99 Stade de France FRA  2 : 3  RUS  78228
 05/06/99 Laugardalsvollur ISL  2 : 0  ARM  5565
 05/06/99 NSC Olympiyskiy Stadium UKR  4 : 0  AND  51000
 09/06/99 Dynamo Stadium RUS  1 : 0  ISL  36000
 09/06/99 Olimpic Lluis Companys AND  0 : 1  FRA  8600
 09/06/99 Hrazdan Stadium ARM  0 : 0  UKR  15000
 04/09/99 Laugardalsvollur ISL  3 : 0  AND  5100
 04/09/99 NSC Olympiyskiy Stadium UKR  0 : 0  FRA  70000
 04/09/99 Luzhniki Stadium RUS  2 : 0  ARM  36000
 08/09/99 Laugardalsvollur ISL  0 : 1  UKR  7000
 08/09/99 Estadi Comunal AND  1 : 2  RUS  1000
 08/09/99 Hrazdan Stadium ARM  2 : 3  FRA  18000
 09/10/99 Luzhniki Stadium RUS  1 : 1  UKR  80000
 09/10/99 Estadi Comunal AND  0 : 3  ARM  700
 09/10/99 Stade de France FRA  3 : 2  ISL  78391
GROUP 5
 05/09/98 Rasunda Stadium SWE  2 : 1  ENG  36000
 06/09/98 Lazur Stadium BUL  0 : 3  POL  17100
 10/10/98 Wojska Polskiego POL  3 : 0  LUX  8000
 10/10/98 Old Wembley Stadium ENG  0 : 0  BUL  72974
 14/10/98 Stade Josy Barthel LUX  0 : 3  ENG  8054
 14/10/98 Lazur Stadium BUL  0 : 1  SWE  10000
 27/03/99 Old Wembley Stadium ENG  3 : 1  POL  73836
 27/03/99 Nya Ullevi SWE  2 : 0  LUX  37228
 31/03/99 Stadion Slaski POL  0 : 1  SWE  28860
 31/03/99 Stade Josy Barthel LUX  0 : 2  BUL  3000
 04/06/99 Wojska Polskiego POL  2 : 0  BUL  6266
 05/06/99 Old Wembley Stadium ENG  0 : 0  SWE  75824
 09/06/99 Stade Josy Barthel LUX  2 : 3  POL  8000
 09/06/99 Balgarska Armiya BUL  1 : 1  ENG  18000
 04/09/99 Rasunda Stadium SWE  1 : 0  BUL  35640
 04/09/99 Old Wembley Stadium ENG  6 : 0  LUX  68772
 08/09/99 Stade Josy Barthel LUX  0 : 1  SWE  4228
 08/09/99 Wojska Polskiego POL  0 : 0  ENG  14000
 09/10/99 Rasunda Stadium SWE  2 : 0  POL  35000
 10/10/99 Balgarska Armiya BUL  3 : 0  LUX  4000
GROUP 6
 05/09/98 Ernst-Happel-Stadion AUT  1 : 1  ISR  20000
 05/09/98 Antonis Papadopoulos CYP  3 : 2  ESP  1876
 10/10/98 Stadio Olimpico SMR  0 : 5  ISR  872
 10/10/98 Antonis Papadopoulos CYP  0 : 3  AUT  5679
 14/10/98 Stadio Olimpico SMR  1 : 4  AUT  872
 14/10/98 Ramat Gan Stadium ISR  1 : 2  ESP  37000
 18/11/98 Stadio Olimpico SMR  0 : 1  CYP  510
 10/02/99 Tsirion Stadium CYP  4 : 0  SMR  4000
 27/03/99 Estadio Mestalla ESP  9 : 0  AUT  35500
 28/03/99 Ramat Gan Stadium ISR  3 : 0  CYP  35000
 31/03/99 Stadio Olimpico SMR  0 : 6  ESP  2020
 28/04/99 UPC-Arena AUT  7 : 0  SMR  15400
 05/06/99 Estadio El Madrigal ESP  9 : 0  SMR  16000
 06/06/99 Ramat Gan Stadium ISR  5 : 0  AUT  45000
 04/09/99 Ernst-Happel-Stadion AUT  1 : 3  ESP  27000
 05/09/99 Tsirion Stadium CYP  3 : 2  ISR  16000
 08/09/99 Estadio Nuevo Vivero ESP  8 : 0  CYP  15000
 08/09/99 Ramat Gan Stadium ISR  8 : 0  SMR  20000
 10/10/99 Ernst-Happel-Stadion AUT  3 : 1  CYP  10000
 10/10/99 Carlos Belmonte ESP  3 : 0  ISR  12000
GROUP 7
 02/09/98 Stadionul Steaua ROM  7 : 0  LIE  6000
 05/09/98 TJ Lokomotíva SVK  3 : 0  AZE  3243
 06/09/98 Nepstadion HUN  1 : 3  POR  46500
 10/10/98 Estadio Das Antas POR  0 : 1  ROM  37354
 10/10/98 Rheinpark Stadion LIE  0 : 4  SVK  1850
 10/10/98 Tofik Bahramov AZE  0 : 4  HUN  11400
 14/10/98 Nepstadion HUN  1 : 1  ROM  25000
 14/10/98 Tehelne pole SVK  0 : 3  POR  22059
 14/10/98 Rheinpark Stadion LIE  2 : 1  AZE  1450
 26/03/99 D. Afonso Henriques POR  7 : 0  AZE  14650
 27/03/99 Stadionul National ROM  0 : 0  SVK  9750
 27/03/99 Stadion Albert Florian HUN  5 : 0  LIE  9100
 31/03/99 Rheinpark Stadion LIE  0 : 5  POR  3548
 31/03/99 Tehelne pole SVK  0 : 0  HUN  19452
 31/03/99 Tofik Bahramov AZE  0 : 1  ROM  30000
 05/06/99 Estadio Jose Alvalade (1956) POR  1 : 0  SVK  20300
 05/06/99 Tofik Bahramov AZE  4 : 0  LIE  8000
 05/06/99 Stadionul Steaua ROM  2 : 0  HUN  25000
 09/06/99 Cidade de Coimbra POR  8 : 0  LIE  14020
 09/06/99 ETO Park HUN  0 : 1  SVK  16500
 09/06/99 Stadionul Steaua ROM  4 : 0  AZE  5200
 04/09/99 Tehelne pole SVK  1 : 5  ROM  8143
 04/09/99 Rheinpark Stadion LIE  0 : 0  HUN  1700
 04/09/99 Tofik Bahramov AZE  1 : 1  POR  8000
 08/09/99 Stadionul Steaua ROM  1 : 1  POR  28000
 08/09/99 Stadion Albert Florian HUN  3 : 0  AZE  2910
 08/09/99 Mestsky Stadion SVK  2 : 0  LIE  3052
 09/10/99 Rheinpark Stadion LIE  0 : 3  ROM  2900
 09/10/99 Tofik Bahramov AZE  0 : 1  SVK  6000
 09/10/99 Estadio da Luz (1954) POR  3 : 0  HUN  75000
GROUP 8
 05/09/98 Lansdowne Road IRE  2 : 0  CRO  34000
 06/09/98 Philip II Arena MKD  4 : 0  MLT  8000
 10/10/98 Ta' Qali National Stadium MLT  1 : 4  CRO  1573
 14/10/98 Lansdowne Road IRE  5 : 0  MLT  34000
 14/10/98 Stadion Maksimir CRO  3 : 2  MKD  8541
 18/11/98 Ta' Qali National Stadium MLT  1 : 2  MKD  1295
 18/11/98 Rajko Mitic Stadium YUG  1 : 0  IRE  28250
 10/02/99 Ta' Qali National Stadium MLT  0 : 3  YUG  1781
 05/06/99 Philip II Arena MKD  1 : 1  CRO  10000
 08/06/99 Stadio Toumbas YUG  4 : 1  MLT  3000
 09/06/99 Lansdowne Road IRE  1 : 0  MKD  28108
 18/08/99 Rajko Mitic Stadium YUG  0 : 0  CRO  48282
 21/08/99 Stadion Maksimir CRO  2 : 1  MLT  20000
 01/09/99 Lansdowne Road IRE  2 : 1  YUG  31400
 04/09/99 Stadion Maksimir CRO  1 : 0  IRE  30000
 05/09/99 Rajko Mitic Stadium YUG  3 : 1  MKD  22000
 08/09/99 Ta' Qali National Stadium MLT  2 : 3  IRE  8122
 08/09/99 Philip II Arena MKD  2 : 4  YUG  18000
 09/10/99 Stadion Maksimir CRO  2 : 2  YUG  38743
 09/10/99 Philip II Arena MKD  1 : 1  IRE  6000
GROUP 9
 04/06/98 Kadrioru Stadium EST  5 : 0  FRO  3500
 19/08/98 Asim Ferhatovic Hase BIH  1 : 0  FRO  20000
 05/09/98 Zalgiris Stadium LTU  0 : 0  SCO  15029
 05/09/98 Asim Ferhatovic Hase BIH  1 : 1  EST  14750
 06/09/98 Svangaskard FRO  0 : 1  CZE  2589
 10/10/98 Zalgiris Stadium LTU  0 : 0  FRO  800
 10/10/98 Tynecastle Stadium SCO  3 : 2  EST  16930
 10/10/98 Asim Ferhatovic Hase BIH  1 : 3  CZE  20000
 14/10/98 Pittodrie Stadium SCO  2 : 1  FRO  18517
 14/10/98 Zalgiris Stadium LTU  4 : 2  BIH  1000
 14/10/98 Na Stinadlech CZE  4 : 1  EST  13123
 27/03/99 Na Stinadlech CZE  2 : 0  LTU  14658
 31/03/99 Celtic Park SCO  1 : 2  CZE  44513
 31/03/99 Zalgiris Stadium LTU  1 : 2  EST  2000
 05/06/99 Svangaskard FRO  1 : 1  SCO  4100
 05/06/99 Asim Ferhatovic Hase BIH  2 : 0  LTU  6100
 05/06/99 Kadrioru Stadium EST  0 : 2  CZE  2925
 09/06/99 Svangaskard FRO  2 : 2  BIH  4800
 09/06/99 Generali Arena CZE  3 : 2  SCO  21149
 09/06/99 Kadrioru Stadium EST  1 : 2  LTU  2000
 04/09/99 Asim Ferhatovic Hase BIH  1 : 2  SCO  26000
 04/09/99 Zalgiris Stadium LTU  0 : 4  CZE  3000
 04/09/99 Torsvollur FRO  0 : 2  EST  2300
 08/09/99 Na Stinadlech CZE  3 : 0  BIH  10125
 08/09/99 Kadrioru Stadium EST  0 : 0  SCO  4000
 08/09/99 Torsvollur FRO  0 : 1  LTU  680
 05/10/99 Ibrox Stadium SCO  1 : 0  BIH  30574
 09/10/99 Generali Arena CZE  2 : 0  FRO  21362
 09/10/99 Kadrioru Stadium EST  1 : 4  BIH  1200
 09/10/99 Hampden Park SCO  3 : 0  LTU  22059
PLAYOFFS
 13/11/99 Lansdowne Road IRE  1 : 1  TUR  53610
 13/11/99 Ramat Gan Stadium ISR  0 : 5  DEN  43000
 13/11/99 Bezigrad Stadium SVN  2 : 1  UKR  18000
 13/11/99 Hampden Park SCO  0 : 2  ENG  50132
 17/11/99 Old Wembley Stadium ENG  0 : 1  SCO  75848
 17/11/99 Telia Parken DEN  3 : 0  ISR  41186
 17/11/99 Bursa Ataturk TUR  0 : 0  IRE  21000
 17/11/99 NSC Olympiyskiy Stadium UKR  1 : 1  SVN  80000